Latest Weather Observations for Norah Head

IDN60901

Issued at 4:21 am EDT Wednesday 25 January 2017 (issued every 10 minutes, with the page automatically refreshed every 10 minutes)

About weather observations | Map of Sydney area stations | Latest observations for Sydney area | Other Formats
Station Details ID: 061366 Name: NORAH HEAD AWS Lat: -33.28 Lon: 151.58 Height: 18.8 m
Data from the previous 72 hours. | See also: Recent months at Norah Head
Date/Time
EDT
Temp
°C
App
Temp
°C
Dew
Point
°C
Rel
Hum
%
Delta-T
°C
Wind Press
QNH
hPa
Press
MSL
hPa
Rain since
9am
mm
Dir  Spd
km/h
Gust
km/h
Spd
kts
Gust
kts
25/04:00am 21.0 19.3 18.9 88 1.3 SSW 26 33 14 18 1018.2 1018.1 19.4
25/03:30am 21.0 20.1 19.1 89 1.2 SSW 22 30 12 16 1018.1 1018.0 19.4
25/03:00am 20.9 19.6 19.9 94 0.6 SSW 26 35 14 19 1018.2 1018.1 19.4
25/02:30am 20.7 20.3 20.2 97 0.3 SSW 22 32 12 17 1018.1 1018.0 19.4
25/02:00am 20.8 21.0 20.6 99 0.1 SSW 20 30 11 16 1018.4 1018.3 19.4
25/01:30am 20.5 19.5 20.5 100 0.0 SSW 26 33 14 18 1018.3 1018.2 19.4
25/01:00am 20.6 20.0 20.6 100 0.0 SSW 24 30 13 16 1018.6 1018.5 19.4
25/12:30am 20.4 16.5 20.4 100 0.0 S 41 48 22 26 1018.6 1018.5 19.4
25/12:00am 20.9 18.0 20.9 100 0.0 S 37 44 20 24 1018.2 1018.1 18.8
 
Date/Time
EDT
Temp
°C
App
Temp
°C
Dew
Point
°C
Rel
Hum
%
Delta-T
°C
Wind Press
QNH
hPa
Press
MSL
hPa
Rain since
9am
mm
Dir  Spd
km/h
Gust
km/h
Spd
kts
Gust
kts
24/11:30pm 20.8 17.9 20.8 100 0.0 SSW 37 46 20 25 1017.9 1017.8 17.4
24/11:00pm 21.1 18.3 21.1 100 0.0 SSW 37 46 20 25 1017.5 1017.4 15.6
24/10:30pm 21.3 19.6 21.3 100 0.0 SSW 32 41 17 22 1017.2 1017.1 14.2
24/10:00pm 21.8 19.8 21.8 100 0.0 S 35 44 19 24 1016.6 1016.5 6.0
24/09:30pm 22.0 20.5 22.0 100 0.0 S 33 39 18 21 1015.6 1015.5 3.4
24/09:00pm 22.1 21.2 22.1 100 0.0 SSW 30 37 16 20 1015.4 1015.3 1.8
24/08:30pm 22.3 20.9 22.3 100 0.0 SSW 33 43 18 23 1014.9 1014.8 0.8
24/08:00pm 23.0 23.2 22.7 98 0.2 SSW 26 32 14 17 1013.9 1013.8 0.0
24/07:30pm 23.1 21.2 22.8 98 0.2 SSW 37 44 20 24 1012.9 1012.8 0.0
24/07:00pm 23.0 20.9 22.3 96 0.5 SSW 37 44 20 24 1012.0 1011.9 0.0
24/06:30pm 23.3 20.8 21.7 91 1.1 SSW 37 48 20 26 1011.4 1011.3 0.0
24/06:00pm 26.6 23.4 21.8 75 3.2 SSW 41 61 22 33 1010.6 1010.5 0.0
24/05:54pm 27.3 27.0 21.1 69 4.1 S 24 57 13 31 1010.3 1010.2 0.0
24/05:53pm 27.4 27.8 21.0 68 4.2 SSE 20 43 11 23 1010.4 1010.3 0.0
24/05:30pm 28.9 30.6 20.9 62 5.3 ENE 13 20 7 11 1009.0 1009.0 0.0
24/05:00pm 26.3 26.6 20.8 71 3.6 SSE 20 26 11 14 1008.3 1008.3 0.0
24/04:30pm 27.2 26.5 21.0 69 4.1 SSE 26 35 14 19 1007.7 1007.7 0.0
24/04:00pm 28.2 29.3 20.5 63 5.1 SSE 15 20 8 11 1008.0 1008.0 0.0
24/03:30pm 28.1 30.2 20.1 62 5.2 S 9 13 5 7 1007.8 1007.8 0.0
24/03:00pm 30.7 32.3 19.1 50 7.6 SSW 9 11 5 6 1007.3 1007.3 0.0
24/02:30pm 34.0 35.3 18.5 40 10.1 SSW 9 13 5 7 1007.2 1007.2 0.0
24/02:00pm 36.9 39.0 18.9 34 11.9 WSW 6 13 3 7 1007.1 1007.1 0.0
24/01:30pm 35.9 37.4 18.9 36 11.2 W 9 17 5 9 1007.1 1007.1 0.0
24/01:00pm 36.7 36.8 18.3 34 12.1 W 15 30 8 16 1007.1 1007.1 0.0
24/12:30pm 37.4 37.3 17.9 31 12.7 W 15 26 8 14 1006.9 1006.9 0.0
24/12:00pm 39.0 40.8 18.8 30 13.4 WNW 7 22 4 12 1006.8 1006.8 0.0
24/11:30am 34.9 36.0 16.7 34 11.6 NE 6 11 3 6 1007.1 1007.1 0.0
24/11:00am 36.0 37.5 18.1 34 11.7 NNW 7 15 4 8 1007.5 1007.5 0.0
24/10:30am 33.2 33.7 16.5 36 10.6 NW 9 19 5 10 1007.9 1007.9 0.0
24/10:00am 33.7 33.8 16.6 36 10.9 WNW 11 32 6 17 1007.9 1007.9 0.0
24/09:30am 31.1 32.6 18.1 46 8.4 WNW 7 15 4 8 1008.2 1008.2 0.0
24/09:26am 30.6 32.2 18.3 47 7.9 NW 7 15 4 8 1008.1 1008.1 0.0
24/09:00am 25.5 27.9 20.1 72 3.5 NNW 7 13 4 7 1008.2 1008.2 0.0
24/08:30am 24.3 27.2 21.0 82 2.2 N 7 11 4 6 1008.2 1008.2 0.0
24/08:00am 23.3 25.0 21.0 87 1.5 N 13 17 7 9 1008.0 1008.0 0.0
24/07:30am 22.6 22.9 20.7 89 1.2 NNE 20 24 11 13 1007.6 1007.6 0.0
24/07:00am 22.3 23.2 20.9 92 0.9 NNE 17 19 9 10 1007.6 1007.6 0.0
24/06:30am 22.2 23.2 21.0 93 0.8 NNE 17 22 9 12 1007.5 1007.5 0.0
24/06:00am 21.9 22.4 20.9 94 0.7 NNE 19 24 10 13 1007.0 1007.0 0.0
24/05:30am 21.8 22.1 20.8 94 0.6 NNE 20 24 11 13 1007.0 1007.0 0.0
24/05:00am 21.8 21.7 20.8 94 0.7 NNE 22 26 12 14 1006.9 1006.9 0.0
24/04:30am 21.9 21.5 20.9 94 0.7 NNE 24 30 13 16 1006.6 1006.6 0.0
24/04:00am 21.9 21.4 20.7 93 0.8 NNE 24 26 13 14 1007.1 1007.1 0.0
24/03:30am 21.9 21.3 20.5 92 0.9 NNE 24 28 13 15 1007.2 1007.2 0.0
24/03:00am 21.9 21.3 20.5 92 0.9 NNE 24 28 13 15 1007.5 1007.5 0.0
24/02:30am 21.9 21.8 20.7 93 0.8 NNE 22 26 12 14 1007.9 1007.9 0.0
24/02:00am 21.8 22.3 20.8 94 0.7 N 19 20 10 11 1008.2 1008.2 0.0
24/01:30am 22.0 21.4 20.6 92 0.9 NNE 24 28 13 15 1008.1 1008.1 0.0
24/01:00am 22.1 21.6 20.7 92 0.9 NNE 24 28 13 15 1008.5 1008.5 0.0
24/12:30am 22.2 20.8 20.5 90 1.1 NNE 28 32 15 17 1008.5 1008.5 0.0
24/12:00am 22.3 21.7 20.6 90 1.1 NNE 24 28 13 15 1009.1 1009.1 0.0
 
Date/Time
EDT
Temp
°C
App
Temp
°C
Dew
Point
°C
Rel
Hum
%
Delta-T
°C
Wind Press
QNH
hPa
Press
MSL
hPa
Rain since
9am
mm
Dir  Spd
km/h
Gust
km/h
Spd
kts
Gust
kts
23/11:30pm 22.3 21.4 20.6 90 1.1 NNE 26 30 14 16 1009.4 1009.3 0.0
23/11:00pm 22.4 21.4 20.5 89 1.2 NNE 26 30 14 16 1009.5 1009.4 0.0
23/10:30pm 22.6 20.8 20.3 87 1.5 NNE 30 33 16 18 1009.5 1009.4 0.0
23/10:00pm 22.7 21.2 20.2 86 1.6 NNE 28 32 15 17 1009.8 1009.7 0.0
23/09:30pm 22.6 21.1 20.3 87 1.5 N 28 33 15 18 1009.7 1009.6 0.0
23/09:00pm 22.6 21.1 20.3 87 1.5 N 28 33 15 18 1009.4 1009.3 0.0
23/08:30pm 22.8 20.5 20.5 87 1.5 NNE 33 39 18 21 1008.9 1008.9 0.0
23/08:00pm 23.0 19.9 20.5 86 1.6 NNE 37 43 20 23 1008.5 1008.5 0.0
23/07:30pm 23.4 19.2 20.5 84 1.9 NE 43 50 23 27 1008.2 1008.2 0.0
23/07:00pm 23.6 19.8 20.5 83 2.0 NE 41 46 22 25 1008.2 1008.2 0.0
23/06:30pm 23.6 19.7 20.3 82 2.1 NE 41 50 22 27 1008.1 1008.1 0.0
23/06:00pm 23.8 20.3 20.3 81 2.3 NE 39 44 21 24 1008.3 1008.3 0.0
23/05:30pm 24.1 20.5 20.2 79 2.5 NE 39 46 21 25 1008.6 1008.6 0.0
23/05:00pm 24.4 20.9 20.3 78 2.7 NE 39 46 21 25 1008.9 1008.9 0.0
23/04:30pm 24.6 21.0 20.1 76 2.9 NE 39 44 21 24 1009.4 1009.3 0.0
23/04:00pm 24.9 22.4 20.2 75 3.1 NNE 33 39 18 21 1010.0 1009.9 0.0
23/03:30pm 25.3 22.1 20.3 74 3.3 NE 37 46 20 25 1010.3 1010.2 0.0
23/03:00pm 25.6 22.8 20.2 72 3.5 NE 35 43 19 23 1010.8 1010.7 0.0
23/02:30pm 25.9 23.1 20.2 71 3.7 NE 35 41 19 22 1011.3 1011.2 0.0
23/02:00pm 27.1 25.0 20.9 69 4.1 NE 33 39 18 21 1011.6 1011.5 0.0
23/01:30pm 27.5 25.8 20.6 66 4.5 NE 30 35 16 19 1012.1 1012.0 0.0
23/01:00pm 27.6 26.3 20.7 66 4.6 NE 28 32 15 17 1012.6 1012.5 0.0
23/12:30pm 28.4 27.9 20.7 63 5.1 NE 24 28 13 15 1013.0 1012.9 0.0
23/12:00pm 27.7 27.5 19.8 62 5.1 NE 20 24 11 13 1013.4 1013.3 0.0
23/11:30am 27.4 26.9 20.0 64 4.8 NE 22 24 12 13 1013.8 1013.7 0.0
23/11:00am 27.1 27.1 20.2 66 4.5 NE 20 22 11 12 1014.2 1014.1 0.0
23/10:30am 27.1 27.3 20.2 66 4.5 NE 19 22 10 12 1014.5 1014.4 0.0
23/10:00am 26.2 27.1 20.1 69 4.0 NE 15 19 8 10 1014.7 1014.6 0.0
23/09:30am 24.7 24.6 19.5 73 3.3 N 19 24 10 13 1015.0 1014.9 0.0
23/09:00am 24.5 24.7 20.2 77 2.8 NNE 19 24 10 13 1015.0 1014.9 0.2
23/08:30am 23.3 21.5 19.5 79 2.4 NNE 28 32 15 17 1014.8 1014.7 0.2
23/08:00am 22.7 20.0 19.3 81 2.2 NNE 32 35 17 19 1014.3 1014.2 0.2
23/07:30am 22.2 20.3 19.4 84 1.8 NNE 28 33 15 18 1014.2 1014.1 0.2
23/07:00am 21.6 19.4 19.5 88 1.3 NNE 30 33 16 18 1013.8 1013.7 0.2
23/06:30am 21.2 19.0 19.5 90 1.1 NNE 30 33 16 18 1013.6 1013.5 0.2
23/06:00am 21.2 19.4 19.5 90 1.1 NNE 28 33 15 18 1013.7 1013.6 0.2
23/05:30am 21.2 19.4 19.5 90 1.1 NNE 28 32 15 17 1013.5 1013.4 0.2
23/05:00am 21.3 19.9 19.6 90 1.1 NNE 26 32 14 17 1013.4 1013.3 0.2
23/04:30am 21.3 19.9 19.6 90 1.1 NNE 26 32 14 17 1013.2 1013.1 0.2
23/04:00am 21.4 20.0 19.7 90 1.1 NNE 26 32 14 17 1013.3 1013.2 0.2
23/03:30am 21.4 19.7 19.7 90 1.1 NNE 28 32 15 17 1013.4 1013.3 0.2
23/03:00am 21.5 20.2 19.8 90 1.1 NNE 26 32 14 17 1013.6 1013.5 0.2
23/02:30am 21.5 19.7 19.6 89 1.2 NNE 28 32 15 17 1013.8 1013.7 0.2
23/02:00am 21.6 19.9 19.7 89 1.2 NNE 28 33 15 18 1014.1 1014.0 0.2
23/01:30am 21.7 19.1 19.6 88 1.3 NNE 32 37 17 20 1014.1 1014.0 0.2
23/01:00am 21.7 19.6 19.8 89 1.2 NNE 30 33 16 18 1014.5 1014.4 0.2
23/12:30am 21.8 20.1 19.9 89 1.2 NNE 28 33 15 18 1014.8 1014.7 0.2
23/12:00am 21.9 20.3 20.0 89 1.2 NNE 28 33 15 18 1015.0 1014.9 0.2
 
Date/Time
EDT
Temp
°C
App
Temp
°C
Dew
Point
°C
Rel
Hum
%
Delta-T
°C
Wind Press
QNH
hPa
Press
MSL
hPa
Rain since
9am
mm
Dir  Spd
km/h
Gust
km/h
Spd
kts
Gust
kts
22/11:30pm 22.1 19.1 19.8 87 1.5 NE 35 41 19 22 1015.0 1014.9 0.2
22/11:00pm 22.1 19.6 19.8 87 1.5 NE 32 39 17 21 1015.2 1015.1 0.2
22/10:30pm 22.1 20.0 19.8 87 1.5 NE 30 35 16 19 1015.5 1015.4 0.2
22/10:00pm 22.2 20.2 19.9 87 1.5 NE 30 35 16 19 1015.6 1015.5 0.2
22/09:30pm 22.1 19.9 19.6 86 1.6 NE 30 35 16 19 1015.5 1015.4 0.2
22/09:00pm 22.2 20.8 19.7 86 1.6 NE 26 32 14 17 1015.4 1015.3 0.2
22/08:30pm 22.3 20.9 19.7 85 1.7 NE 26 30 14 16 1015.5 1015.4 0.2
22/08:00pm 22.4 21.7 19.6 84 1.8 NE 22 26 12 14 1015.5 1015.4 0.2
22/07:30pm 23.0 22.2 19.2 79 2.4 NE 22 26 12 14 1015.3 1015.2 0.2
22/07:00pm 24.1 23.0 18.7 72 3.4 NE 22 26 12 14 1015.1 1015.0 0.2
22/06:30pm 24.6 23.4 18.3 68 4.0 ENE 22 24 12 13 1014.8 1014.7 0.2
22/06:00pm 25.5 24.4 18.7 66 4.3 ENE 22 28 12 15 1014.5 1014.4 0.2
22/05:30pm 25.6 24.4 18.3 64 4.6 ENE 22 24 12 13 1014.6 1014.5 0.2
22/05:00pm 26.2 25.5 18.6 63 4.8 ENE 20 24 11 13 1014.9 1014.8 0.2
22/04:30pm 26.0 25.9 18.7 64 4.7 ENE 17 20 9 11 1015.3 1015.2 0.2
22/04:00pm 26.2 26.0 18.6 63 4.8 ENE 17 20 9 11 1015.6 1015.5 0.2
22/03:30pm 26.6 26.4 18.5 61 5.2 ENE 17 19 9 10 1015.8 1015.7 0.2
22/03:00pm 26.4 26.5 18.3 61 5.1 ENE 15 17 8 9 1015.9 1015.8 0.2
22/02:30pm 25.7 26.2 18.4 64 4.6 E 13 17 7 9 1016.2 1016.1 0.2
22/02:00pm 25.6 25.7 18.3 64 4.6 ESE 15 17 8 9 1016.4 1016.3 0.2
22/01:30pm 25.8 25.8 18.2 63 4.8 ESE 15 17 8 9 1016.6 1016.5 0.2
22/01:00pm 25.9 26.3 18.1 62 4.9 ESE 13 15 7 8 1016.9 1016.8 0.2
22/12:30pm 25.7 26.3 17.6 61 5.1 SE 11 13 6 7 1017.2 1017.1 0.2
22/12:00pm 26.2 27.4 18.3 61 5.0 SE 9 11 5 6 1017.6 1017.5 0.2
22/11:30am 26.0 26.7 17.9 61 5.1 SSE 11 11 6 6 1017.7 1017.6 0.2
22/11:00am 26.5 27.2 18.9 63 4.9 S 13 15 7 8 1017.7 1017.6 0.2
22/10:30am 25.5 26.0 18.4 65 4.5 S 13 13 7 7 1017.7 1017.6 0.0
22/10:00am 25.0 26.1 18.9 69 3.9 S 11 13 6 7 1017.7 1017.6 0.0
22/09:30am 23.7 24.9 19.0 75 3.0 SSW 11 15 6 8 1017.7 1017.6 0.0
22/09:00am 22.0 23.3 18.4 80 2.3 SSW 9 11 5 6 1017.7 1017.6 0.2
22/08:30am 21.1 23.1 18.7 86 1.5 SSW 6 9 3 5 1017.6 1017.5 0.2
22/08:00am 20.5 22.1 18.3 87 1.4 SSW 7 11 4 6 1017.6 1017.5 0.2
22/07:30am 20.1 22.2 18.2 89 1.2 S 4 9 2 5 1017.5 1017.4 0.2
22/07:00am 20.2 21.3 18.0 87 1.4 ESE 9 17 5 9 1017.4 1017.3 0.0
22/06:30am 20.2 22.5 17.8 86 1.5 SSE 2 6 1 3 1017.0 1016.9 0.0
22/06:00am 20.7 21.0 17.9 84 1.7 SSE 13 19 7 10 1016.8 1016.7 0.0
22/05:30am 20.9 20.0 17.7 82 2.0 S 19 22 10 12 1016.4 1016.3 0.0
22/05:00am 20.8 20.2 17.6 82 2.0 S 17 22 9 12 1016.1 1016.0 0.0
22/04:30am 20.9 21.1 18.5 86 1.5 SSW 15 22 8 12 1015.8 1015.7 0.0

Latest Capital City Observations: Canberra | Sydney | Melbourne | Brisbane | Adelaide | Perth | Hobart | Darwin

Other Formats:

Comma delimited format used in spreadsheet applications
http://www.bom.gov.au/fwo/IDN60901/IDN60901.95770.axf

JavaScript Object Notation format (JSON) in row-major order
http://www.bom.gov.au/fwo/IDN60901/IDN60901.95770.json